sensor_id;sensor_type;location;lat;lon;timestamp;P1;durP1;ratioP1;P2;durP2;ratioP2
28547;SDS011;15750;49.600;8.746;2023-02-01T00:01:31;3.83;;;2.80;;
28547;SDS011;15750;49.600;8.746;2023-02-01T00:04:00;4.03;;;2.83;;
28547;SDS011;15750;49.600;8.746;2023-02-01T00:06:29;3.73;;;2.90;;
28547;SDS011;15750;49.600;8.746;2023-02-01T00:08:58;3.23;;;2.77;;
28547;SDS011;15750;49.600;8.746;2023-02-01T00:11:26;3.17;;;2.87;;
28547;SDS011;15750;49.600;8.746;2023-02-01T00:13:57;3.17;;;2.87;;
28547;SDS011;15750;49.600;8.746;2023-02-01T00:16:26;3.20;;;2.90;;
28547;SDS011;15750;49.600;8.746;2023-02-01T00:18:57;2.70;;;2.50;;
28547;SDS011;15750;49.600;8.746;2023-02-01T00:21:28;3.23;;;2.93;;
28547;SDS011;15750;49.600;8.746;2023-02-01T00:23:58;3.67;;;2.43;;
28547;SDS011;15750;49.600;8.746;2023-02-01T00:26:27;3.03;;;2.83;;
28547;SDS011;15750;49.600;8.746;2023-02-01T00:29:02;2.90;;;2.57;;
28547;SDS011;15750;49.600;8.746;2023-02-01T00:31:33;3.27;;;2.50;;
28547;SDS011;15750;49.600;8.746;2023-02-01T00:34:02;3.03;;;2.70;;
28547;SDS011;15750;49.600;8.746;2023-02-01T00:36:32;3.10;;;2.80;;
28547;SDS011;15750;49.600;8.746;2023-02-01T00:39:01;3.07;;;2.87;;
28547;SDS011;15750;49.600;8.746;2023-02-01T00:41:30;2.73;;;2.53;;
28547;SDS011;15750;49.600;8.746;2023-02-01T00:43:59;3.33;;;2.97;;
28547;SDS011;15750;49.600;8.746;2023-02-01T00:46:30;2.93;;;2.70;;
28547;SDS011;15750;49.600;8.746;2023-02-01T00:49:00;3.40;;;2.50;;
28547;SDS011;15750;49.600;8.746;2023-02-01T00:51:29;2.90;;;2.60;;
28547;SDS011;15750;49.600;8.746;2023-02-01T00:53:58;2.87;;;2.67;;
28547;SDS011;15750;49.600;8.746;2023-02-01T00:56:26;3.20;;;2.87;;
28547;SDS011;15750;49.600;8.746;2023-02-01T00:58:55;3.43;;;3.13;;
28547;SDS011;15750;49.600;8.746;2023-02-01T01:01:25;3.07;;;2.80;;
28547;SDS011;15750;49.600;8.746;2023-02-01T01:03:56;3.13;;;2.83;;
28547;SDS011;15750;49.600;8.746;2023-02-01T01:06:28;3.40;;;3.07;;
28547;SDS011;15750;49.600;8.746;2023-02-01T01:09:00;2.80;;;2.60;;
28547;SDS011;15750;49.600;8.746;2023-02-01T01:11:32;3.97;;;3.10;;
28547;SDS011;15750;49.600;8.746;2023-02-01T01:14:05;3.40;;;3.10;;
28547;SDS011;15750;49.600;8.746;2023-02-01T01:16:35;3.13;;;2.83;;
28547;SDS011;15750;49.600;8.746;2023-02-01T01:19:05;3.20;;;3.00;;
28547;SDS011;15750;49.600;8.746;2023-02-01T01:21:34;3.40;;;2.90;;
28547;SDS011;15750;49.600;8.746;2023-02-01T01:24:03;3.20;;;2.87;;
28547;SDS011;15750;49.600;8.746;2023-02-01T01:26:33;3.10;;;2.80;;
28547;SDS011;15750;49.600;8.746;2023-02-01T01:29:02;3.00;;;2.70;;
28547;SDS011;15750;49.600;8.746;2023-02-01T01:31:31;3.20;;;2.90;;
28547;SDS011;15750;49.600;8.746;2023-02-01T01:34:00;3.33;;;3.03;;
28547;SDS011;15750;49.600;8.746;2023-02-01T01:36:30;3.80;;;3.43;;
28547;SDS011;15750;49.600;8.746;2023-02-01T01:38:59;3.77;;;3.03;;
28547;SDS011;15750;49.600;8.746;2023-02-01T01:41:28;3.97;;;3.20;;
28547;SDS011;15750;49.600;8.746;2023-02-01T01:47:30;4.37;;;3.10;;
28547;SDS011;15750;49.600;8.746;2023-02-01T01:50:05;3.27;;;3.00;;
28547;SDS011;15750;49.600;8.746;2023-02-01T01:52:39;4.07;;;3.30;;
28547;SDS011;15750;49.600;8.746;2023-02-01T01:55:10;2.83;;;2.60;;
28547;SDS011;15750;49.600;8.746;2023-02-01T01:57:40;3.40;;;2.73;;
28547;SDS011;15750;49.600;8.746;2023-02-01T02:00:12;3.60;;;3.30;;
28547;SDS011;15750;49.600;8.746;2023-02-01T02:02:46;4.00;;;3.60;;
28547;SDS011;15750;49.600;8.746;2023-02-01T02:05:18;3.47;;;3.17;;
28547;SDS011;15750;49.600;8.746;2023-02-01T02:07:49;3.03;;;2.73;;
28547;SDS011;15750;49.600;8.746;2023-02-01T02:10:21;2.97;;;2.77;;
28547;SDS011;15750;49.600;8.746;2023-02-01T02:13:10;3.30;;;3.03;;
28547;SDS011;15750;49.600;8.746;2023-02-01T02:15:41;4.60;;;3.00;;
28547;SDS011;15750;49.600;8.746;2023-02-01T02:18:30;3.23;;;3.00;;
28547;SDS011;15750;49.600;8.746;2023-02-01T02:21:16;3.53;;;3.03;;
28547;SDS011;15750;49.600;8.746;2023-02-01T02:24:08;3.93;;;3.00;;
28547;SDS011;15750;49.600;8.746;2023-02-01T02:27:18;3.13;;;2.83;;
28547;SDS011;15750;49.600;8.746;2023-02-01T02:30:02;3.53;;;3.20;;
28547;SDS011;15750;49.600;8.746;2023-02-01T02:36:13;3.00;;;2.70;;
28547;SDS011;15750;49.600;8.746;2023-02-01T02:38:50;3.03;;;2.70;;
28547;SDS011;15750;49.600;8.746;2023-02-01T02:41:30;3.50;;;3.00;;
28547;SDS011;15750;49.600;8.746;2023-02-01T02:44:27;3.30;;;3.00;;
28547;SDS011;15750;49.600;8.746;2023-02-01T02:47:27;3.70;;;3.27;;
28547;SDS011;15750;49.600;8.746;2023-02-01T02:50:11;3.37;;;2.90;;
28547;SDS011;15750;49.600;8.746;2023-02-01T02:53:04;2.87;;;2.67;;
28547;SDS011;15750;49.600;8.746;2023-02-01T02:55:55;3.53;;;2.97;;
28547;SDS011;15750;49.600;8.746;2023-02-01T02:58:42;3.77;;;2.80;;
28547;SDS011;15750;49.600;8.746;2023-02-01T03:01:31;3.17;;;2.87;;
28547;SDS011;15750;49.600;8.746;2023-02-01T03:04:18;3.07;;;2.77;;
28547;SDS011;15750;49.600;8.746;2023-02-01T03:06:50;4.23;;;2.80;;
28547;SDS011;15750;49.600;8.746;2023-02-01T03:09:23;3.07;;;2.80;;
28547;SDS011;15750;49.600;8.746;2023-02-01T03:11:57;3.17;;;2.73;;
28547;SDS011;15750;49.600;8.746;2023-02-01T03:14:56;3.03;;;2.67;;
28547;SDS011;15750;49.600;8.746;2023-02-01T03:17:33;2.87;;;2.67;;
28547;SDS011;15750;49.600;8.746;2023-02-01T03:20:07;3.27;;;2.80;;
28547;SDS011;15750;49.600;8.746;2023-02-01T03:22:41;3.87;;;3.30;;
28547;SDS011;15750;49.600;8.746;2023-02-01T03:25:14;3.53;;;3.23;;
28547;SDS011;15750;49.600;8.746;2023-02-01T03:27:50;4.07;;;3.00;;
28547;SDS011;15750;49.600;8.746;2023-02-01T03:30:24;3.87;;;2.87;;
28547;SDS011;15750;49.600;8.746;2023-02-01T03:32:57;3.67;;;3.20;;
28547;SDS011;15750;49.600;8.746;2023-02-01T03:35:33;4.57;;;3.00;;
28547;SDS011;15750;49.600;8.746;2023-02-01T03:38:11;4.30;;;3.33;;
28547;SDS011;15750;49.600;8.746;2023-02-01T03:40:49;3.83;;;3.43;;
28547;SDS011;15750;49.600;8.746;2023-02-01T03:43:23;3.30;;;3.00;;
28547;SDS011;15750;49.600;8.746;2023-02-01T03:45:57;3.83;;;3.00;;
28547;SDS011;15750;49.600;8.746;2023-02-01T03:48:32;3.33;;;2.97;;
28547;SDS011;15750;49.600;8.746;2023-02-01T03:51:02;4.17;;;2.90;;
28547;SDS011;15750;49.600;8.746;2023-02-01T03:53:36;3.40;;;3.10;;
28547;SDS011;15750;49.600;8.746;2023-02-01T03:56:06;4.20;;;3.47;;
28547;SDS011;15750;49.600;8.746;2023-02-01T03:58:35;3.40;;;2.83;;
28547;SDS011;15750;49.600;8.746;2023-02-01T04:01:04;3.27;;;2.97;;
28547;SDS011;15750;49.600;8.746;2023-02-01T04:03:36;4.43;;;2.93;;
28547;SDS011;15750;49.600;8.746;2023-02-01T04:06:05;3.70;;;2.73;;
28547;SDS011;15750;49.600;8.746;2023-02-01T04:08:36;3.90;;;3.40;;
28547;SDS011;15750;49.600;8.746;2023-02-01T04:11:05;3.77;;;2.93;;
28547;SDS011;15750;49.600;8.746;2023-02-01T04:13:34;3.50;;;3.20;;
28547;SDS011;15750;49.600;8.746;2023-02-01T04:16:03;2.60;;;2.40;;
28547;SDS011;15750;49.600;8.746;2023-02-01T04:18:32;3.87;;;2.90;;
28547;SDS011;15750;49.600;8.746;2023-02-01T04:21:01;3.83;;;2.90;;
28547;SDS011;15750;49.600;8.746;2023-02-01T04:23:31;4.00;;;3.27;;
28547;SDS011;15750;49.600;8.746;2023-02-01T04:26:01;3.50;;;3.20;;
28547;SDS011;15750;49.600;8.746;2023-02-01T04:28:32;4.30;;;2.87;;
28547;SDS011;15750;49.600;8.746;2023-02-01T04:31:00;4.03;;;3.27;;
28547;SDS011;15750;49.600;8.746;2023-02-01T04:33:29;5.10;;;3.37;;
28547;SDS011;15750;49.600;8.746;2023-02-01T04:35:58;3.60;;;3.13;;
28547;SDS011;15750;49.600;8.746;2023-02-01T04:38:27;4.20;;;3.43;;
28547;SDS011;15750;49.600;8.746;2023-02-01T04:40:58;5.00;;;3.50;;
28547;SDS011;15750;49.600;8.746;2023-02-01T04:43:28;3.53;;;3.23;;
28547;SDS011;15750;49.600;8.746;2023-02-01T04:45:57;3.67;;;2.90;;
28547;SDS011;15750;49.600;8.746;2023-02-01T04:48:26;3.73;;;3.37;;
28547;SDS011;15750;49.600;8.746;2023-02-01T04:50:54;3.53;;;3.23;;
28547;SDS011;15750;49.600;8.746;2023-02-01T04:53:23;3.40;;;3.10;;
28547;SDS011;15750;49.600;8.746;2023-02-01T04:55:53;3.57;;;3.27;;
28547;SDS011;15750;49.600;8.746;2023-02-01T04:58:23;3.67;;;3.37;;
28547;SDS011;15750;49.600;8.746;2023-02-01T05:00:51;3.60;;;3.30;;
28547;SDS011;15750;49.600;8.746;2023-02-01T05:03:20;4.17;;;3.77;;
28547;SDS011;15750;49.600;8.746;2023-02-01T05:05:49;4.30;;;3.47;;
28547;SDS011;15750;49.600;8.746;2023-02-01T05:08:20;3.60;;;3.30;;
28547;SDS011;15750;49.600;8.746;2023-02-01T05:10:49;3.53;;;3.20;;
28547;SDS011;15750;49.600;8.746;2023-02-01T05:13:17;3.43;;;3.13;;
28547;SDS011;15750;49.600;8.746;2023-02-01T05:16:06;3.90;;;2.83;;
28547;SDS011;15750;49.600;8.746;2023-02-01T05:18:35;2.73;;;2.50;;
28547;SDS011;15750;49.600;8.746;2023-02-01T05:21:03;3.87;;;2.67;;
28547;SDS011;15750;49.600;8.746;2023-02-01T05:23:32;3.37;;;2.40;;
28547;SDS011;15750;49.600;8.746;2023-02-01T05:26:21;2.30;;;2.00;;
28547;SDS011;15750;49.600;8.746;2023-02-01T05:28:51;3.07;;;2.47;;
28547;SDS011;15750;49.600;8.746;2023-02-01T05:31:21;3.50;;;2.60;;
28547;SDS011;15750;49.600;8.746;2023-02-01T05:33:50;2.77;;;2.30;;
28547;SDS011;15750;49.600;8.746;2023-02-01T05:36:19;2.17;;;1.97;;
28547;SDS011;15750;49.600;8.746;2023-02-01T05:38:48;2.53;;;1.90;;
28547;SDS011;15750;49.600;8.746;2023-02-01T05:41:16;1.67;;;1.57;;
28547;SDS011;15750;49.600;8.746;2023-02-01T05:43:45;2.57;;;1.87;;
28547;SDS011;15750;49.600;8.746;2023-02-01T05:46:14;2.53;;;1.93;;
28547;SDS011;15750;49.600;8.746;2023-02-01T05:48:44;2.13;;;1.93;;
28547;SDS011;15750;49.600;8.746;2023-02-01T05:51:12;2.50;;;2.30;;
28547;SDS011;15750;49.600;8.746;2023-02-01T05:53:41;3.10;;;2.60;;
28547;SDS011;15750;49.600;8.746;2023-02-01T05:56:10;3.23;;;2.93;;
28547;SDS011;15750;49.600;8.746;2023-02-01T05:58:38;4.83;;;3.50;;
28547;SDS011;15750;49.600;8.746;2023-02-01T06:01:07;4.27;;;3.87;;
28547;SDS011;15750;49.600;8.746;2023-02-01T06:03:36;4.73;;;4.23;;
28547;SDS011;15750;49.600;8.746;2023-02-01T06:06:07;6.90;;;4.83;;
28547;SDS011;15750;49.600;8.746;2023-02-01T06:08:35;6.50;;;4.70;;
28547;SDS011;15750;49.600;8.746;2023-02-01T06:11:06;4.67;;;4.00;;
28547;SDS011;15750;49.600;8.746;2023-02-01T06:13:38;4.70;;;4.27;;
28547;SDS011;15750;49.600;8.746;2023-02-01T06:16:07;5.20;;;3.73;;
28547;SDS011;15750;49.600;8.746;2023-02-01T06:18:36;4.67;;;4.17;;
28547;SDS011;15750;49.600;8.746;2023-02-01T06:21:04;4.77;;;3.80;;
28547;SDS011;15750;49.600;8.746;2023-02-01T06:23:36;3.73;;;3.40;;
28547;SDS011;15750;49.600;8.746;2023-02-01T06:26:05;5.67;;;3.63;;
28547;SDS011;15750;49.600;8.746;2023-02-01T06:28:35;4.23;;;3.47;;
28547;SDS011;15750;49.600;8.746;2023-02-01T06:31:05;4.30;;;3.30;;
28547;SDS011;15750;49.600;8.746;2023-02-01T06:33:36;5.07;;;3.40;;
28547;SDS011;15750;49.600;8.746;2023-02-01T06:36:07;3.30;;;3.00;;
28547;SDS011;15750;49.600;8.746;2023-02-01T06:38:39;3.53;;;3.23;;
28547;SDS011;15750;49.600;8.746;2023-02-01T06:41:08;4.40;;;3.53;;
28547;SDS011;15750;49.600;8.746;2023-02-01T06:43:37;3.80;;;3.33;;
28547;SDS011;15750;49.600;8.746;2023-02-01T06:46:07;4.17;;;3.40;;
28547;SDS011;15750;49.600;8.746;2023-02-01T06:48:39;4.47;;;3.43;;
28547;SDS011;15750;49.600;8.746;2023-02-01T06:51:17;3.90;;;3.47;;
28547;SDS011;15750;49.600;8.746;2023-02-01T06:53:51;4.33;;;3.43;;
28547;SDS011;15750;49.600;8.746;2023-02-01T06:56:20;3.87;;;3.53;;
28547;SDS011;15750;49.600;8.746;2023-02-01T06:58:49;4.50;;;3.47;;
28547;SDS011;15750;49.600;8.746;2023-02-01T07:01:18;4.10;;;3.70;;
28547;SDS011;15750;49.600;8.746;2023-02-01T07:03:47;4.23;;;3.83;;
28547;SDS011;15750;49.600;8.746;2023-02-01T07:06:19;6.80;;;3.60;;
28547;SDS011;15750;49.600;8.746;2023-02-01T07:08:48;5.20;;;4.03;;
28547;SDS011;15750;49.600;8.746;2023-02-01T07:11:17;4.23;;;3.40;;
28547;SDS011;15750;49.600;8.746;2023-02-01T07:13:46;3.80;;;3.37;;
28547;SDS011;15750;49.600;8.746;2023-02-01T07:16:17;3.50;;;3.20;;
28547;SDS011;15750;49.600;8.746;2023-02-01T07:18:47;4.07;;;3.70;;
28547;SDS011;15750;49.600;8.746;2023-02-01T07:21:19;5.43;;;3.17;;
28547;SDS011;15750;49.600;8.746;2023-02-01T07:23:47;7.80;;;6.60;;
28547;SDS011;15750;49.600;8.746;2023-02-01T07:26:16;28.13;;;19.87;;
28547;SDS011;15750;49.600;8.746;2023-02-01T07:28:45;21.20;;;16.50;;
28547;SDS011;15750;49.600;8.746;2023-02-01T07:31:14;14.67;;;11.93;;
28547;SDS011;15750;49.600;8.746;2023-02-01T07:33:47;16.77;;;14.10;;
28547;SDS011;15750;49.600;8.746;2023-02-01T07:36:19;14.40;;;8.23;;
28547;SDS011;15750;49.600;8.746;2023-02-01T07:38:48;6.70;;;5.17;;
28547;SDS011;15750;49.600;8.746;2023-02-01T07:41:19;5.67;;;4.63;;
28547;SDS011;15750;49.600;8.746;2023-02-01T07:43:48;6.07;;;5.10;;
28547;SDS011;15750;49.600;8.746;2023-02-01T07:46:21;7.00;;;4.53;;
28547;SDS011;15750;49.600;8.746;2023-02-01T07:48:50;5.40;;;4.03;;
28547;SDS011;15750;49.600;8.746;2023-02-01T07:51:20;6.57;;;4.20;;
28547;SDS011;15750;49.600;8.746;2023-02-01T07:53:48;5.27;;;3.20;;
28547;SDS011;15750;49.600;8.746;2023-02-01T07:56:18;3.83;;;3.40;;
28547;SDS011;15750;49.600;8.746;2023-02-01T07:58:49;4.33;;;3.40;;
28547;SDS011;15750;49.600;8.746;2023-02-01T08:01:18;4.63;;;3.60;;
28547;SDS011;15750;49.600;8.746;2023-02-01T08:03:51;4.07;;;3.50;;
28547;SDS011;15750;49.600;8.746;2023-02-01T08:06:24;3.77;;;3.40;;
28547;SDS011;15750;49.600;8.746;2023-02-01T08:08:53;4.63;;;3.57;;
28547;SDS011;15750;49.600;8.746;2023-02-01T08:11:23;7.73;;;4.13;;
28547;SDS011;15750;49.600;8.746;2023-02-01T08:13:52;6.17;;;4.23;;
28547;SDS011;15750;49.600;8.746;2023-02-01T08:16:22;6.70;;;3.90;;
28547;SDS011;15750;49.600;8.746;2023-02-01T08:18:52;5.77;;;3.47;;
28547;SDS011;15750;49.600;8.746;2023-02-01T08:21:21;5.83;;;3.50;;
28547;SDS011;15750;49.600;8.746;2023-02-01T08:24:03;6.10;;;3.60;;
28547;SDS011;15750;49.600;8.746;2023-02-01T08:26:33;6.70;;;3.57;;
28547;SDS011;15750;49.600;8.746;2023-02-01T08:29:02;4.30;;;3.43;;
28547;SDS011;15750;49.600;8.746;2023-02-01T08:31:33;3.47;;;3.13;;
28547;SDS011;15750;49.600;8.746;2023-02-01T08:34:02;5.63;;;3.63;;
28547;SDS011;15750;49.600;8.746;2023-02-01T08:36:34;4.27;;;3.13;;
28547;SDS011;15750;49.600;8.746;2023-02-01T08:39:04;4.70;;;2.60;;
28547;SDS011;15750;49.600;8.746;2023-02-01T08:41:35;3.40;;;3.00;;
28547;SDS011;15750;49.600;8.746;2023-02-01T08:44:04;6.37;;;3.27;;
28547;SDS011;15750;49.600;8.746;2023-02-01T08:46:33;5.97;;;3.47;;
28547;SDS011;15750;49.600;8.746;2023-02-01T08:49:02;5.97;;;3.33;;
28547;SDS011;15750;49.600;8.746;2023-02-01T08:51:30;4.63;;;3.27;;
28547;SDS011;15750;49.600;8.746;2023-02-01T08:54:00;5.60;;;3.00;;
28547;SDS011;15750;49.600;8.746;2023-02-01T08:56:29;4.70;;;3.13;;
28547;SDS011;15750;49.600;8.746;2023-02-01T08:58:58;5.37;;;3.10;;
28547;SDS011;15750;49.600;8.746;2023-02-01T09:01:26;4.30;;;2.93;;
28547;SDS011;15750;49.600;8.746;2023-02-01T09:03:55;3.40;;;2.90;;
28547;SDS011;15750;49.600;8.746;2023-02-01T09:06:24;2.83;;;2.43;;
28547;SDS011;15750;49.600;8.746;2023-02-01T09:08:52;7.67;;;3.07;;
28547;SDS011;15750;49.600;8.746;2023-02-01T09:11:22;5.83;;;3.33;;
28547;SDS011;15750;49.600;8.746;2023-02-01T09:13:52;7.23;;;3.30;;
28547;SDS011;15750;49.600;8.746;2023-02-01T09:16:21;6.93;;;3.03;;
28547;SDS011;15750;49.600;8.746;2023-02-01T09:18:50;4.50;;;3.00;;
28547;SDS011;15750;49.600;8.746;2023-02-01T09:21:33;4.93;;;3.10;;
28547;SDS011;15750;49.600;8.746;2023-02-01T09:24:02;6.90;;;3.40;;
28547;SDS011;15750;49.600;8.746;2023-02-01T09:26:33;5.90;;;3.30;;
28547;SDS011;15750;49.600;8.746;2023-02-01T09:29:01;5.17;;;3.07;;
28547;SDS011;15750;49.600;8.746;2023-02-01T09:31:32;6.87;;;3.27;;
28547;SDS011;15750;49.600;8.746;2023-02-01T09:34:01;7.37;;;3.63;;
28547;SDS011;15750;49.600;8.746;2023-02-01T09:36:30;5.40;;;3.80;;
28547;SDS011;15750;49.600;8.746;2023-02-01T09:39:00;6.77;;;3.53;;
28547;SDS011;15750;49.600;8.746;2023-02-01T09:41:35;6.43;;;3.20;;
28547;SDS011;15750;49.600;8.746;2023-02-01T09:44:19;5.73;;;3.40;;
28547;SDS011;15750;49.600;8.746;2023-02-01T09:47:11;7.83;;;3.27;;
28547;SDS011;15750;49.600;8.746;2023-02-01T09:49:44;8.47;;;3.47;;
28547;SDS011;15750;49.600;8.746;2023-02-01T09:52:20;7.13;;;4.03;;
28547;SDS011;15750;49.600;8.746;2023-02-01T09:54:56;6.87;;;3.57;;
28547;SDS011;15750;49.600;8.746;2023-02-01T09:57:34;5.73;;;3.97;;
28547;SDS011;15750;49.600;8.746;2023-02-01T10:00:15;7.83;;;3.90;;
28547;SDS011;15750;49.600;8.746;2023-02-01T10:02:49;9.57;;;3.50;;
28547;SDS011;15750;49.600;8.746;2023-02-01T10:05:20;5.73;;;3.50;;
28547;SDS011;15750;49.600;8.746;2023-02-01T10:08:05;6.83;;;3.43;;
28547;SDS011;15750;49.600;8.746;2023-02-01T10:10:46;7.70;;;3.13;;
28547;SDS011;15750;49.600;8.746;2023-02-01T10:13:22;8.97;;;3.30;;
28547;SDS011;15750;49.600;8.746;2023-02-01T10:16:10;5.77;;;2.77;;
28547;SDS011;15750;49.600;8.746;2023-02-01T10:18:51;5.27;;;3.10;;
28547;SDS011;15750;49.600;8.746;2023-02-01T10:21:35;4.77;;;2.43;;
28547;SDS011;15750;49.600;8.746;2023-02-01T10:24:20;8.57;;;3.20;;
28547;SDS011;15750;49.600;8.746;2023-02-01T10:27:25;5.60;;;2.60;;
28547;SDS011;15750;49.600;8.746;2023-02-01T10:30:01;8.57;;;2.97;;
28547;SDS011;15750;49.600;8.746;2023-02-01T10:32:40;6.57;;;2.77;;
28547;SDS011;15750;49.600;8.746;2023-02-01T10:35:11;4.27;;;2.43;;
28547;SDS011;15750;49.600;8.746;2023-02-01T10:37:44;4.50;;;2.60;;
28547;SDS011;15750;49.600;8.746;2023-02-01T10:40:16;5.70;;;2.90;;
28547;SDS011;15750;49.600;8.746;2023-02-01T10:42:49;8.47;;;4.50;;
28547;SDS011;15750;49.600;8.746;2023-02-01T10:45:21;6.57;;;2.87;;
28547;SDS011;15750;49.600;8.746;2023-02-01T10:47:54;5.17;;;3.50;;
28547;SDS011;15750;49.600;8.746;2023-02-01T10:50:29;5.17;;;2.50;;
28547;SDS011;15750;49.600;8.746;2023-02-01T10:53:06;7.10;;;2.70;;
28547;SDS011;15750;49.600;8.746;2023-02-01T10:55:45;6.80;;;3.30;;
28547;SDS011;15750;49.600;8.746;2023-02-01T10:58:17;7.83;;;2.83;;
28547;SDS011;15750;49.600;8.746;2023-02-01T11:00:57;6.87;;;2.83;;
28547;SDS011;15750;49.600;8.746;2023-02-01T11:06:26;6.33;;;3.33;;
28547;SDS011;15750;49.600;8.746;2023-02-01T11:08:57;6.53;;;2.70;;
28547;SDS011;15750;49.600;8.746;2023-02-01T11:11:28;5.50;;;2.80;;
28547;SDS011;15750;49.600;8.746;2023-02-01T11:13:58;6.27;;;2.60;;
28547;SDS011;15750;49.600;8.746;2023-02-01T11:16:31;4.27;;;2.50;;
28547;SDS011;15750;49.600;8.746;2023-02-01T11:19:03;4.90;;;2.43;;
28547;SDS011;15750;49.600;8.746;2023-02-01T11:21:33;5.30;;;2.53;;
28547;SDS011;15750;49.600;8.746;2023-02-01T11:24:04;7.60;;;2.57;;
28547;SDS011;15750;49.600;8.746;2023-02-01T11:26:39;6.60;;;3.40;;
28547;SDS011;15750;49.600;8.746;2023-02-01T11:29:09;6.73;;;2.50;;
28547;SDS011;15750;49.600;8.746;2023-02-01T11:31:42;4.53;;;2.30;;
28547;SDS011;15750;49.600;8.746;2023-02-01T11:34:12;7.57;;;2.80;;
28547;SDS011;15750;49.600;8.746;2023-02-01T11:36:47;6.43;;;2.77;;
28547;SDS011;15750;49.600;8.746;2023-02-01T11:39:19;6.73;;;3.10;;
28547;SDS011;15750;49.600;8.746;2023-02-01T11:41:58;9.13;;;3.17;;
28547;SDS011;15750;49.600;8.746;2023-02-01T11:44:31;4.70;;;2.87;;
28547;SDS011;15750;49.600;8.746;2023-02-01T11:47:19;6.13;;;3.17;;
28547;SDS011;15750;49.600;8.746;2023-02-01T11:49:51;7.13;;;3.00;;
28547;SDS011;15750;49.600;8.746;2023-02-01T11:52:26;6.87;;;2.80;;
28547;SDS011;15750;49.600;8.746;2023-02-01T11:58:19;7.30;;;3.33;;
28547;SDS011;15750;49.600;8.746;2023-02-01T12:01:03;9.53;;;3.20;;
28547;SDS011;15750;49.600;8.746;2023-02-01T12:04:01;8.50;;;3.23;;
28547;SDS011;15750;49.600;8.746;2023-02-01T12:07:43;8.17;;;2.83;;
28547;SDS011;15750;49.600;8.746;2023-02-01T12:10:46;5.83;;;2.60;;
28547;SDS011;15750;49.600;8.746;2023-02-01T12:13:33;7.13;;;2.67;;
28547;SDS011;15750;49.600;8.746;2023-02-01T12:16:19;5.10;;;2.90;;
28547;SDS011;15750;49.600;8.746;2023-02-01T12:19:09;7.07;;;2.80;;
28547;SDS011;15750;49.600;8.746;2023-02-01T12:22:22;6.33;;;2.40;;
28547;SDS011;15750;49.600;8.746;2023-02-01T12:25:12;6.00;;;2.60;;
28547;SDS011;15750;49.600;8.746;2023-02-01T12:31:30;4.83;;;2.40;;
28547;SDS011;15750;49.600;8.746;2023-02-01T12:34:19;6.37;;;2.50;;
28547;SDS011;15750;49.600;8.746;2023-02-01T12:37:13;7.10;;;2.60;;
28547;SDS011;15750;49.600;8.746;2023-02-01T12:39:56;5.60;;;2.80;;
28547;SDS011;15750;49.600;8.746;2023-02-01T12:42:43;5.93;;;2.50;;
28547;SDS011;15750;49.600;8.746;2023-02-01T12:45:21;5.23;;;2.57;;
28547;SDS011;15750;49.600;8.746;2023-02-01T12:48:00;6.87;;;2.70;;
28547;SDS011;15750;49.600;8.746;2023-02-01T12:50:45;4.30;;;2.50;;
28547;SDS011;15750;49.600;8.746;2023-02-01T12:53:22;4.90;;;2.50;;
28547;SDS011;15750;49.600;8.746;2023-02-01T12:55:54;3.90;;;2.60;;
28547;SDS011;15750;49.600;8.746;2023-02-01T12:58:26;5.20;;;2.43;;
28547;SDS011;15750;49.600;8.746;2023-02-01T13:01:03;6.10;;;2.83;;
28547;SDS011;15750;49.600;8.746;2023-02-01T13:03:38;6.17;;;2.50;;
28547;SDS011;15750;49.600;8.746;2023-02-01T13:06:15;6.87;;;2.67;;
28547;SDS011;15750;49.600;8.746;2023-02-01T13:08:48;7.60;;;2.33;;
28547;SDS011;15750;49.600;8.746;2023-02-01T13:11:27;7.73;;;2.50;;
28547;SDS011;15750;49.600;8.746;2023-02-01T13:14:00;6.63;;;2.77;;
28547;SDS011;15750;49.600;8.746;2023-02-01T13:16:34;7.00;;;2.57;;
28547;SDS011;15750;49.600;8.746;2023-02-01T13:19:10;8.30;;;2.90;;
28547;SDS011;15750;49.600;8.746;2023-02-01T13:21:48;6.10;;;2.43;;
28547;SDS011;15750;49.600;8.746;2023-02-01T13:24:29;9.50;;;2.50;;
28547;SDS011;15750;49.600;8.746;2023-02-01T13:27:04;8.23;;;3.03;;
28547;SDS011;15750;49.600;8.746;2023-02-01T13:29:33;7.67;;;2.90;;
28547;SDS011;15750;49.600;8.746;2023-02-01T13:35:55;5.93;;;2.70;;
28547;SDS011;15750;49.600;8.746;2023-02-01T13:39:06;6.80;;;2.30;;
28547;SDS011;15750;49.600;8.746;2023-02-01T13:42:18;6.63;;;2.77;;
28547;SDS011;15750;49.600;8.746;2023-02-01T13:44:50;7.27;;;2.47;;
28547;SDS011;15750;49.600;8.746;2023-02-01T13:47:25;8.17;;;2.60;;
28547;SDS011;15750;49.600;8.746;2023-02-01T13:49:59;5.20;;;2.67;;
28547;SDS011;15750;49.600;8.746;2023-02-01T13:52:34;4.77;;;2.40;;
28547;SDS011;15750;49.600;8.746;2023-02-01T13:58:15;7.83;;;3.00;;
28547;SDS011;15750;49.600;8.746;2023-02-01T14:00:48;5.00;;;2.80;;
28547;SDS011;15750;49.600;8.746;2023-02-01T14:03:19;11.97;;;3.57;;
28547;SDS011;15750;49.600;8.746;2023-02-01T14:06:02;5.70;;;2.93;;
28547;SDS011;15750;49.600;8.746;2023-02-01T14:08:45;7.67;;;4.00;;
28547;SDS011;15750;49.600;8.746;2023-02-01T14:11:43;9.43;;;5.20;;
28547;SDS011;15750;49.600;8.746;2023-02-01T14:23:25;6.07;;;3.30;;
28547;SDS011;15750;49.600;8.746;2023-02-01T14:26:08;5.37;;;2.97;;
28547;SDS011;15750;49.600;8.746;2023-02-01T14:28:51;6.07;;;2.87;;
28547;SDS011;15750;49.600;8.746;2023-02-01T14:31:32;6.00;;;2.70;;
28547;SDS011;15750;49.600;8.746;2023-02-01T14:34:35;5.80;;;2.70;;
28547;SDS011;15750;49.600;8.746;2023-02-01T14:37:11;6.87;;;2.77;;
28547;SDS011;15750;49.600;8.746;2023-02-01T14:40:01;6.17;;;2.67;;
28547;SDS011;15750;49.600;8.746;2023-02-01T14:42:33;8.80;;;3.13;;
28547;SDS011;15750;49.600;8.746;2023-02-01T14:51:22;4.27;;;2.63;;
28547;SDS011;15750;49.600;8.746;2023-02-01T14:53:52;8.67;;;4.37;;
28547;SDS011;15750;49.600;8.746;2023-02-01T14:56:21;7.17;;;3.90;;
28547;SDS011;15750;49.600;8.746;2023-02-01T14:58:52;5.60;;;4.37;;
28547;SDS011;15750;49.600;8.746;2023-02-01T15:01:27;12.73;;;8.87;;
28547;SDS011;15750;49.600;8.746;2023-02-01T15:04:00;15.50;;;10.10;;
28547;SDS011;15750;49.600;8.746;2023-02-01T15:06:33;7.47;;;5.43;;
28547;SDS011;15750;49.600;8.746;2023-02-01T15:09:08;6.70;;;3.83;;
28547;SDS011;15750;49.600;8.746;2023-02-01T15:11:56;8.33;;;3.70;;
28547;SDS011;15750;49.600;8.746;2023-02-01T15:14:29;7.80;;;3.40;;
28547;SDS011;15750;49.600;8.746;2023-02-01T15:17:02;6.77;;;2.87;;
28547;SDS011;15750;49.600;8.746;2023-02-01T15:19:52;4.60;;;3.07;;
28547;SDS011;15750;49.600;8.746;2023-02-01T15:22:22;10.47;;;3.77;;
28547;SDS011;15750;49.600;8.746;2023-02-01T15:24:52;5.97;;;3.00;;
28547;SDS011;15750;49.600;8.746;2023-02-01T15:27:21;6.73;;;3.13;;
28547;SDS011;15750;49.600;8.746;2023-02-01T15:29:51;5.50;;;3.43;;
28547;SDS011;15750;49.600;8.746;2023-02-01T15:32:30;5.83;;;3.30;;
28547;SDS011;15750;49.600;8.746;2023-02-01T15:35:01;5.73;;;2.97;;
28547;SDS011;15750;49.600;8.746;2023-02-01T15:37:31;8.23;;;4.27;;
28547;SDS011;15750;49.600;8.746;2023-02-01T15:40:18;7.40;;;3.63;;
28547;SDS011;15750;49.600;8.746;2023-02-01T15:42:50;6.37;;;3.83;;
28547;SDS011;15750;49.600;8.746;2023-02-01T15:45:23;7.00;;;3.40;;
28547;SDS011;15750;49.600;8.746;2023-02-01T15:47:57;5.17;;;2.83;;
28547;SDS011;15750;49.600;8.746;2023-02-01T15:50:27;8.50;;;3.03;;
28547;SDS011;15750;49.600;8.746;2023-02-01T15:52:58;6.03;;;3.17;;
28547;SDS011;15750;49.600;8.746;2023-02-01T15:55:30;10.67;;;3.10;;
28547;SDS011;15750;49.600;8.746;2023-02-01T15:58:07;5.37;;;3.13;;
28547;SDS011;15750;49.600;8.746;2023-02-01T16:00:43;6.17;;;2.83;;
28547;SDS011;15750;49.600;8.746;2023-02-01T16:03:26;5.33;;;2.73;;
28547;SDS011;15750;49.600;8.746;2023-02-01T16:06:03;6.93;;;2.90;;
28547;SDS011;15750;49.600;8.746;2023-02-01T16:08:34;9.27;;;2.87;;
28547;SDS011;15750;49.600;8.746;2023-02-01T16:11:14;8.13;;;3.77;;